Freeburg, Missouri
Current Conditions -  °F | °C
As of 1:53 PM on Friday 19 Dec 2014 (Local Time) from KVIH Reporting Station
Overcast Overcast  
Wind Chill: 35°   Ceiling: 700
Heat Index: 35°   Visibility: 10mi
Dew Point: 31°   Wind: 0mph
Humidity: 85%   Direction: NA
Pressure: 30.21"   Gusts: NA
Location:  38.32°N, 91.92°W
Report Text: KVIH 191953Z AUTO 00000KT 10SM OVC007 02/M01 A3021 RMK AO2 SLP240 T00171006
Loading
Personal Weather Stations






























Interactive Weather Map New forecast layout! Learn more

10-Day Weather Forecast

Advertisements
Track Severe Weather on mobile